createdAt,value
2022-10-25T00:01:44.843Z,25.83
2022-10-25T00:04:12.468Z,29.03
2022-10-25T00:06:39.910Z,26.73
2022-10-25T00:09:07.383Z,28.17
2022-10-25T00:11:35.406Z,23.77
2022-10-25T00:14:05.329Z,26.43
2022-10-25T00:16:35.889Z,27.37
2022-10-25T00:19:03.255Z,27.10
2022-10-25T00:21:30.726Z,26.70
2022-10-25T00:23:58.119Z,24.53
2022-10-25T00:26:25.484Z,35.93
2022-10-25T00:28:54.795Z,24.50
2022-10-25T00:31:22.195Z,29.40
2022-10-25T00:33:49.630Z,29.80
2022-10-25T00:36:19.464Z,28.07
2022-10-25T00:38:46.821Z,98.10
2022-10-25T00:41:16.945Z,32.03
2022-10-25T00:43:48.082Z,46.43
2022-10-25T00:46:35.040Z,35.00
2022-10-25T00:49:23.679Z,27.43
2022-10-25T00:51:56.159Z,25.97
2022-10-25T00:54:26.709Z,26.63
2022-10-25T00:56:54.977Z,32.57
2022-10-25T00:59:26.461Z,27.67
2022-10-25T01:01:55.010Z,27.53
2022-10-25T01:04:27.191Z,21.60
2022-10-25T01:06:54.943Z,28.33
2022-10-25T01:09:26.829Z,31.90
2022-10-25T01:11:54.385Z,28.83
2022-10-25T01:14:21.933Z,29.47
2022-10-25T01:17:28.697Z,30.13
2022-10-25T01:20:35.434Z,27.70
2022-10-25T01:23:42.217Z,26.80
2022-10-25T01:26:48.959Z,26.17
2022-10-25T01:29:56.122Z,30.00
2022-10-25T01:33:02.903Z,26.30
2022-10-25T01:36:09.667Z,27.13
2022-10-25T01:39:16.474Z,30.77
2022-10-25T01:42:07.173Z,24.60
2022-10-25T01:45:03.334Z,23.47
2022-10-25T01:47:53.763Z,32.47
2022-10-25T01:50:27.019Z,22.67
2022-10-25T01:55:34.193Z,23.70
2022-10-25T01:58:40.915Z,26.05
2022-10-25T02:01:33.346Z,23.70
2022-10-25T02:04:19.157Z,24.60
2022-10-25T02:07:05.430Z,31.13
2022-10-25T02:10:12.109Z,24.37
2022-10-25T02:13:07.726Z,25.80
2022-10-25T02:15:52.758Z,26.17
2022-10-25T02:18:24.010Z,23.73
2022-10-25T02:20:54.247Z,23.47
2022-10-25T02:23:26.045Z,23.53
2022-10-25T02:25:54.654Z,21.17
2022-10-25T02:28:25.588Z,21.50
2022-10-25T02:30:54.110Z,23.27
2022-10-25T02:33:21.546Z,26.63
2022-10-25T02:36:28.313Z,24.90
2022-10-25T02:38:55.893Z,25.30
2022-10-25T02:41:23.280Z,25.07
2022-10-25T02:43:50.738Z,25.57
2022-10-25T02:46:20.939Z,25.80
2022-10-25T02:48:48.598Z,28.27
2022-10-25T02:51:16.062Z,23.53
2022-10-25T02:53:43.805Z,25.60
2022-10-25T02:56:13.773Z,21.10
2022-10-25T02:58:43.461Z,26.57
2022-10-25T03:01:11.220Z,24.67
2022-10-25T03:03:38.674Z,26.33
2022-10-25T03:06:06.436Z,29.70
2022-10-25T03:08:33.760Z,23.97
2022-10-25T03:11:01.151Z,26.10
2022-10-25T03:13:28.595Z,31.17
2022-10-25T03:15:55.953Z,27.17
2022-10-25T03:18:23.229Z,25.27
2022-10-25T03:20:50.870Z,23.77
2022-10-25T03:23:18.403Z,26.87
2022-10-25T03:25:46.169Z,21.93
2022-10-25T03:28:14.598Z,27.50
2022-10-25T03:30:43.330Z,22.60
2022-10-25T03:33:10.843Z,27.73
2022-10-25T03:35:38.419Z,23.20
2022-10-25T03:38:05.995Z,23.00
2022-10-25T03:40:33.611Z,29.13
2022-10-25T03:43:08.022Z,24.83
2022-10-25T03:45:35.507Z,25.70
2022-10-25T03:48:02.991Z,29.80
2022-10-25T03:50:30.587Z,25.90
2022-10-25T03:52:58.043Z,30.07
2022-10-25T03:55:25.507Z,26.43
2022-10-25T03:57:52.990Z,26.60
2022-10-25T04:00:20.623Z,23.87
2022-10-25T04:02:48.132Z,27.10
2022-10-25T04:05:15.638Z,34.87
2022-10-25T04:07:43.056Z,26.17
2022-10-25T04:10:10.582Z,30.13
2022-10-25T04:12:37.972Z,26.33
2022-10-25T04:15:05.645Z,27.50
2022-10-25T04:17:33.178Z,28.23
2022-10-25T04:20:00.653Z,27.70
2022-10-25T04:22:28.187Z,33.73
2022-10-25T04:24:55.827Z,27.83
2022-10-25T04:27:23.282Z,31.03
2022-10-25T04:29:50.721Z,25.30
2022-10-25T04:34:50.587Z,31.23
2022-10-25T04:37:17.971Z,32.43
2022-10-25T04:39:45.659Z,30.77
2022-10-25T04:42:12.997Z,32.83
2022-10-25T04:44:40.413Z,31.37
2022-10-25T04:47:07.768Z,34.77
2022-10-25T04:49:35.184Z,32.43
2022-10-25T04:52:02.658Z,33.50
2022-10-25T04:54:29.957Z,32.93
2022-10-25T04:56:57.420Z,35.20
2022-10-25T04:59:24.948Z,28.87
2022-10-25T05:04:19.580Z,31.13
2022-10-25T05:06:46.959Z,31.70
2022-10-25T05:09:14.262Z,45.97
2022-10-25T05:11:41.451Z,44.23
2022-10-25T05:14:08.542Z,38.07
2022-10-25T05:16:35.848Z,40.10
2022-10-25T05:19:03.241Z,186.97
2022-10-25T05:21:31.322Z,494.47
2022-10-25T05:24:01.978Z,1582.00
2022-10-25T05:26:30.350Z,748.57
2022-10-25T05:28:57.719Z,39.80
2022-10-25T05:31:26.967Z,33.67
2022-10-25T05:33:56.587Z,34.67
2022-10-25T05:36:24.532Z,36.53
2022-10-25T05:38:52.146Z,34.20
2022-10-25T05:41:19.760Z,28.93
2022-10-25T05:43:47.194Z,28.73
2022-10-25T05:46:18.659Z,29.23
2022-10-25T05:48:48.983Z,35.33
2022-10-25T05:51:37.071Z,28.50
2022-10-25T05:54:07.116Z,26.10
2022-10-25T05:56:35.591Z,26.43
2022-10-25T05:59:08.978Z,24.90
2022-10-25T06:01:38.332Z,28.97
2022-10-25T06:04:05.878Z,29.30
2022-10-25T06:06:33.290Z,28.50
2022-10-25T06:09:01.594Z,28.60
2022-10-25T06:11:29.741Z,28.90
2022-10-25T06:13:57.146Z,30.30
2022-10-25T06:16:24.748Z,33.70
2022-10-25T06:18:52.137Z,31.00
2022-10-25T06:21:23.000Z,26.17
2022-10-25T06:23:50.794Z,32.77
2022-10-25T06:26:22.001Z,37.60
2022-10-25T06:28:49.428Z,34.37
2022-10-25T06:31:19.101Z,30.57
2022-10-25T06:33:46.762Z,32.97
2022-10-25T06:36:17.004Z,34.40
2022-10-25T06:38:45.352Z,41.13
2022-10-25T06:41:16.091Z,33.07
2022-10-25T06:43:43.728Z,32.23
2022-10-25T06:47:16.477Z,28.60
2022-10-25T06:49:47.512Z,34.10
2022-10-25T06:52:14.907Z,37.97
2022-10-25T06:54:42.252Z,38.57
2022-10-25T06:57:09.632Z,29.20
2022-10-25T06:59:36.978Z,28.33
2022-10-25T07:02:04.545Z,30.77
2022-10-25T07:04:32.775Z,27.43
2022-10-25T07:07:00.365Z,26.00
2022-10-25T07:09:27.758Z,20.43
2022-10-25T07:11:55.170Z,24.73
2022-10-25T07:14:22.885Z,22.37
2022-10-25T07:16:50.218Z,20.07
2022-10-25T07:19:17.691Z,20.37
2022-10-25T07:21:45.429Z,18.63
2022-10-25T07:24:12.953Z,20.60
2022-10-25T07:26:40.553Z,21.63
2022-10-25T07:29:07.969Z,29.57
2022-10-25T07:31:37.947Z,20.47
2022-10-25T07:34:05.910Z,18.33
2022-10-25T07:36:33.447Z,24.30
2022-10-25T07:39:01.051Z,13.50
2022-10-25T07:41:28.416Z,18.13
2022-10-25T07:43:55.665Z,18.37
2022-10-25T07:46:23.200Z,15.63
2022-10-25T07:48:52.619Z,14.70
2022-10-25T07:51:20.392Z,17.10
2022-10-25T07:53:47.853Z,15.07
2022-10-25T07:56:20.388Z,22.37
2022-10-25T07:58:50.702Z,15.90
2022-10-25T08:01:22.141Z,12.53
2022-10-25T08:03:49.914Z,13.47
2022-10-25T08:06:17.252Z,13.63
2022-10-25T08:08:44.881Z,13.87
2022-10-25T08:11:12.245Z,12.97
2022-10-25T08:13:40.149Z,15.23
2022-10-25T08:16:07.848Z,14.00
2022-10-25T08:18:35.803Z,16.20
2022-10-25T08:21:03.975Z,14.27
2022-10-25T08:23:32.154Z,13.33
2022-10-25T08:26:00.385Z,12.20
2022-10-25T08:28:27.600Z,14.07
2022-10-25T08:30:55.763Z,19.27
2022-10-25T08:33:24.205Z,14.67
2022-10-25T08:35:51.611Z,13.50
2022-10-25T08:38:19.068Z,12.63
2022-10-25T08:41:25.797Z,13.77
2022-10-25T08:44:19.679Z,10.47
2022-10-25T08:47:17.079Z,12.27
2022-10-25T08:50:12.690Z,14.60
2022-10-25T08:52:45.984Z,10.93
2022-10-25T08:55:20.142Z,12.43
2022-10-25T08:57:50.000Z,77.80
2022-10-25T09:00:21.598Z,13.60
2022-10-25T09:02:58.016Z,16.50
2022-10-25T09:06:04.740Z,11.77
2022-10-25T09:09:05.912Z,11.97
2022-10-25T09:12:08.021Z,11.57
2022-10-25T09:15:03.539Z,11.50
2022-10-25T09:17:45.240Z,13.45
2022-10-25T09:20:36.132Z,11.00
2022-10-25T09:23:18.339Z,16.70
2022-10-25T09:26:25.199Z,13.27
2022-10-25T09:29:32.678Z,9.97
2022-10-25T09:32:02.280Z,14.97
2022-10-25T09:34:33.737Z,12.53
2022-10-25T09:37:24.757Z,14.27
2022-10-25T09:39:56.493Z,14.47
2022-10-25T09:42:32.698Z,14.07
2022-10-25T09:45:07.407Z,9.67
2022-10-25T09:48:14.132Z,13.63
2022-10-25T09:50:49.445Z,10.90
2022-10-25T09:53:21.674Z,18.73
2022-10-25T09:56:00.343Z,10.45
2022-10-25T09:58:39.055Z,16.93
2022-10-25T10:01:14.967Z,11.63
2022-10-25T10:03:44.581Z,11.23
2022-10-25T10:06:36.540Z,12.87
2022-10-25T10:09:07.052Z,9.73
2022-10-25T10:11:36.020Z,7.27
2022-10-25T10:14:27.805Z,10.40
2022-10-25T10:16:58.022Z,10.73
2022-10-25T10:19:29.616Z,10.57
2022-10-25T10:22:00.554Z,11.03
2022-10-25T10:24:38.804Z,10.83
2022-10-25T10:27:28.381Z,10.00
2022-10-25T10:30:24.190Z,9.33
2022-10-25T10:32:57.342Z,11.50
2022-10-25T10:35:30.031Z,11.30
2022-10-25T10:38:37.271Z,10.53
2022-10-25T10:41:26.285Z,10.03
2022-10-25T10:44:10.936Z,12.87
2022-10-25T10:46:46.553Z,11.18
2022-10-25T10:49:14.965Z,12.60
2022-10-25T10:51:45.292Z,9.60
2022-10-25T10:54:34.934Z,10.07
2022-10-25T10:57:04.756Z,10.90
2022-10-25T10:59:46.250Z,12.60
2022-10-25T11:02:53.713Z,9.10
2022-10-25T11:05:38.394Z,9.67
2022-10-25T11:08:25.277Z,9.27
2022-10-25T11:10:52.745Z,12.53
2022-10-25T11:13:21.138Z,8.43
2022-10-25T11:16:28.175Z,10.27
2022-10-25T11:19:22.319Z,8.70
2022-10-25T11:22:32.188Z,8.53
2022-10-25T11:25:39.879Z,7.47
2022-10-25T11:28:34.401Z,7.60
2022-10-25T11:31:31.204Z,6.67
2022-10-25T11:34:34.660Z,6.47
2022-10-25T11:37:41.570Z,7.27
2022-10-25T11:40:34.573Z,11.47
2022-10-25T11:43:41.383Z,8.13
2022-10-25T11:46:48.121Z,9.60
2022-10-25T11:49:33.728Z,7.73
2022-10-25T11:55:27.430Z,11.20
2022-10-25T11:58:34.734Z,8.90
2022-10-25T12:01:30.169Z,9.23
2022-10-25T12:04:38.011Z,6.35
2022-10-25T12:07:31.689Z,8.83
2022-10-25T12:10:26.935Z,7.90
2022-10-25T12:13:00.071Z,10.10
2022-10-25T12:15:41.722Z,8.67
2022-10-25T12:18:19.170Z,8.60
2022-10-25T12:20:50.241Z,9.30
2022-10-25T12:23:21.395Z,6.87
2022-10-25T12:25:52.551Z,6.23
2022-10-25T12:28:47.846Z,8.60
2022-10-25T12:31:20.722Z,8.85
2022-10-25T12:34:27.533Z,6.67
2022-10-25T12:36:57.573Z,10.33
2022-10-25T12:39:39.206Z,8.63
2022-10-25T12:42:20.496Z,8.60
2022-10-25T12:45:19.406Z,15.10
2022-10-25T12:47:59.097Z,9.00
2022-10-25T12:51:05.920Z,10.67
2022-10-25T12:54:12.869Z,8.03
2022-10-25T12:57:04.962Z,10.57
2022-10-25T12:59:58.386Z,11.03
2022-10-25T13:02:53.282Z,15.80
2022-10-25T13:06:00.108Z,13.00
2022-10-25T13:08:29.722Z,13.70
2022-10-25T13:11:00.969Z,10.13
2022-10-25T13:13:34.042Z,8.47
2022-10-25T13:16:04.696Z,8.50
2022-10-25T13:18:49.078Z,10.83
2022-10-25T13:21:17.766Z,8.40
2022-10-25T13:24:04.873Z,10.40
2022-10-25T13:26:33.775Z,8.17
2022-10-25T13:29:23.023Z,8.50
2022-10-25T13:32:07.501Z,10.40
2022-10-25T13:34:37.602Z,11.90
2022-10-25T13:37:10.205Z,12.00
2022-10-25T13:39:43.642Z,11.17
2022-10-25T13:42:50.691Z,17.67
2022-10-25T13:45:35.691Z,12.10
2022-10-25T13:48:19.640Z,6.78
2022-10-25T13:50:55.795Z,7.80
2022-10-25T13:53:45.105Z,9.50
2022-10-25T13:56:35.022Z,13.13
2022-10-25T13:59:02.673Z,9.70
2022-10-25T14:01:51.776Z,11.27
2022-10-25T14:04:25.132Z,14.87
2022-10-25T14:06:52.757Z,9.87
2022-10-25T14:09:40.212Z,13.17
2022-10-25T14:12:16.781Z,10.03
2022-10-25T14:15:14.886Z,11.80
2022-10-25T14:17:44.475Z,13.70
2022-10-25T14:20:42.191Z,14.27
2022-10-25T14:23:17.300Z,17.47
2022-10-25T14:28:43.597Z,15.27
2022-10-25T14:31:19.985Z,14.33
2022-10-25T14:34:18.551Z,15.90
2022-10-25T14:36:50.208Z,11.40
2022-10-25T14:39:20.191Z,8.77
2022-10-25T14:42:16.570Z,14.17
2022-10-25T14:44:48.116Z,14.77
2022-10-25T14:47:33.009Z,11.30
2022-10-25T14:50:02.442Z,12.90
2022-10-25T14:52:31.756Z,9.50
2022-10-25T14:55:03.073Z,10.90
2022-10-25T14:57:33.211Z,10.77
2022-10-25T15:00:04.404Z,8.93
2022-10-25T15:02:35.764Z,9.63
2022-10-25T15:05:04.122Z,13.13
2022-10-25T15:07:35.599Z,10.87
2022-10-25T15:12:32.968Z,13.60
2022-10-25T15:15:42.553Z,12.07
2022-10-25T15:18:32.120Z,14.30
2022-10-25T15:21:17.914Z,11.77
2022-10-25T15:24:12.313Z,12.03
2022-10-25T15:26:39.884Z,11.80
2022-10-25T15:29:07.432Z,17.03
2022-10-25T15:31:34.971Z,15.47
2022-10-25T15:34:04.145Z,9.70
2022-10-25T15:36:33.778Z,12.17
2022-10-25T15:39:10.525Z,10.60
2022-10-25T15:41:39.105Z,16.23
2022-10-25T15:44:06.515Z,16.27
2022-10-25T15:46:38.404Z,17.40
2022-10-25T15:49:08.653Z,17.30
2022-10-25T15:51:40.597Z,19.73
2022-10-25T15:54:25.002Z,17.03
2022-10-25T15:56:52.678Z,21.33
2022-10-25T15:59:20.127Z,16.07
2022-10-25T16:01:51.848Z,14.67
2022-10-25T16:04:20.112Z,20.77
2022-10-25T16:06:48.013Z,13.43
2022-10-25T16:09:15.486Z,14.17
2022-10-25T16:11:47.154Z,14.77
2022-10-25T16:14:26.070Z,19.00
2022-10-25T16:16:53.522Z,17.43
2022-10-25T16:19:22.062Z,18.90
2022-10-25T16:21:49.710Z,18.30
2022-10-25T16:24:17.215Z,30.20
2022-10-25T16:26:50.266Z,36.07
2022-10-25T16:29:19.737Z,66.70
2022-10-25T16:31:47.334Z,37.43
2022-10-25T16:34:17.481Z,23.60
2022-10-25T16:36:45.183Z,18.87
2022-10-25T16:39:12.937Z,36.00
2022-10-25T16:41:42.505Z,36.07
2022-10-25T16:44:13.801Z,66.83
2022-10-25T16:46:41.490Z,39.73
2022-10-25T16:49:11.775Z,54.33
2022-10-25T16:51:40.054Z,59.07
2022-10-25T16:54:07.615Z,52.53
2022-10-25T16:56:35.768Z,34.70
2022-10-25T16:59:03.265Z,28.27
2022-10-25T17:01:34.550Z,37.47
2022-10-25T17:04:03.812Z,33.93
2022-10-25T17:06:46.727Z,38.43
2022-10-25T17:09:14.347Z,36.07
2022-10-25T17:11:41.785Z,25.23
2022-10-25T17:14:10.548Z,37.40
2022-10-25T17:16:40.910Z,28.23
2022-10-25T17:19:10.198Z,25.20
2022-10-25T17:21:39.137Z,23.50
2022-10-25T17:24:08.637Z,25.73
2022-10-25T17:26:36.745Z,28.20
2022-10-25T17:29:04.265Z,28.00
2022-10-25T17:31:32.812Z,24.77
2022-10-25T17:34:01.103Z,21.40
2022-10-25T17:36:31.430Z,25.97
2022-10-25T17:38:59.443Z,25.30
2022-10-25T17:41:26.850Z,26.23
2022-10-25T17:43:56.783Z,30.53
2022-10-25T17:46:27.741Z,28.67
2022-10-25T17:48:56.589Z,27.50
2022-10-25T17:51:24.437Z,28.00
2022-10-25T17:53:54.537Z,22.20
2022-10-25T17:56:23.946Z,21.83
2022-10-25T17:58:51.587Z,21.07
2022-10-25T18:01:23.128Z,29.90
2022-10-25T18:03:50.590Z,29.87
2022-10-25T18:06:20.144Z,25.90
2022-10-25T18:08:51.998Z,26.27
2022-10-25T18:11:22.483Z,26.70
2022-10-25T18:13:50.805Z,31.23
2022-10-25T18:16:18.395Z,24.20
2022-10-25T18:18:45.875Z,28.17
2022-10-25T18:21:15.188Z,25.60
2022-10-25T18:23:42.833Z,31.90
2022-10-25T18:26:12.021Z,32.50
2022-10-25T18:28:39.537Z,32.27
2022-10-25T18:31:09.289Z,26.43
2022-10-25T18:33:38.883Z,25.27
2022-10-25T18:36:10.569Z,23.57
2022-10-25T18:38:38.072Z,24.93
2022-10-25T18:41:11.486Z,29.57
2022-10-25T18:43:38.908Z,31.17
2022-10-25T18:46:06.324Z,24.10
2022-10-25T18:48:33.649Z,22.80
2022-10-25T18:51:06.168Z,26.23
2022-10-25T18:53:35.586Z,25.93
2022-10-25T18:56:03.208Z,24.10
2022-10-25T18:58:31.910Z,26.30
2022-10-25T19:01:08.691Z,20.63
2022-10-25T19:03:36.630Z,22.90
2022-10-25T19:06:04.683Z,22.87
2022-10-25T19:08:32.120Z,22.00
2022-10-25T19:11:03.725Z,21.13
2022-10-25T19:13:31.116Z,20.67
2022-10-25T19:15:58.981Z,21.83
2022-10-25T19:18:28.176Z,17.83
2022-10-25T19:20:55.679Z,17.70
2022-10-25T19:23:23.042Z,23.50
2022-10-25T19:25:50.339Z,17.53
2022-10-25T19:28:17.692Z,15.33
2022-10-25T19:30:45.122Z,18.47
2022-10-25T19:33:12.528Z,16.03
2022-10-25T19:35:39.854Z,21.87
2022-10-25T19:38:07.453Z,20.50
2022-10-25T19:40:34.801Z,19.63
2022-10-25T19:43:02.274Z,16.47
2022-10-25T19:45:29.708Z,21.37
2022-10-25T19:47:59.074Z,12.93
2022-10-25T19:50:26.361Z,21.50
2022-10-25T19:52:53.619Z,20.77
2022-10-25T19:55:21.235Z,24.53
2022-10-25T19:57:48.844Z,18.00
2022-10-25T20:00:16.596Z,16.03
2022-10-25T20:02:44.037Z,16.20
2022-10-25T20:07:43.704Z,13.20
2022-10-25T20:10:11.386Z,16.43
2022-10-25T20:12:41.005Z,22.00
2022-10-25T20:15:08.769Z,20.90
2022-10-25T20:17:36.262Z,16.60
2022-10-25T20:20:03.757Z,17.00
2022-10-25T20:22:32.235Z,30.27
2022-10-25T20:24:59.671Z,60.50
2022-10-25T20:27:27.478Z,25.50
2022-10-25T20:29:54.902Z,18.97
2022-10-25T20:32:22.524Z,25.90
2022-10-25T20:34:49.930Z,18.30
2022-10-25T20:37:17.467Z,18.37
2022-10-25T20:39:44.862Z,19.03
2022-10-25T20:42:12.234Z,17.67
2022-10-25T20:44:39.651Z,17.47
2022-10-25T20:47:06.979Z,25.07
2022-10-25T20:49:34.587Z,14.50
2022-10-25T20:52:02.049Z,18.20
2022-10-25T20:54:29.387Z,21.83
2022-10-25T20:56:57.109Z,12.63
2022-10-25T20:59:24.171Z,16.03
2022-10-25T21:01:51.580Z,18.87
2022-10-25T21:04:25.993Z,15.70
2022-10-25T21:07:06.321Z,17.73
2022-10-25T21:09:33.708Z,14.97
2022-10-25T21:12:01.045Z,15.37
2022-10-25T21:14:28.540Z,22.70
2022-10-25T21:16:55.981Z,12.37
2022-10-25T21:19:23.381Z,15.07
2022-10-25T21:21:50.433Z,17.87
2022-10-25T21:24:17.917Z,16.37
2022-10-25T21:26:45.181Z,16.07
2022-10-25T21:29:12.514Z,12.50
2022-10-25T21:31:39.965Z,18.63
2022-10-25T21:34:07.405Z,13.10
2022-10-25T21:36:34.775Z,13.57
2022-10-25T21:39:02.115Z,13.47
2022-10-25T21:41:30.121Z,10.43
2022-10-25T21:43:58.141Z,12.37
2022-10-25T21:46:27.575Z,16.43
2022-10-25T21:48:55.283Z,20.00
2022-10-25T21:51:24.636Z,14.33
2022-10-25T21:56:23.350Z,13.87
2022-10-25T21:58:51.000Z,16.70
2022-10-25T22:01:21.121Z,13.87
2022-10-25T22:03:48.306Z,14.27
2022-10-25T22:06:18.676Z,14.73
2022-10-25T22:08:46.572Z,11.50
2022-10-25T22:11:17.945Z,15.17
2022-10-25T22:13:45.685Z,9.33
2022-10-25T22:16:18.444Z,13.37
2022-10-25T22:18:50.974Z,17.90
2022-10-25T22:21:18.556Z,18.77
2022-10-25T22:23:45.618Z,16.47
2022-10-25T22:26:14.675Z,13.83
2022-10-25T22:28:42.099Z,19.37
2022-10-25T22:31:17.525Z,20.17
2022-10-25T22:33:45.271Z,13.33
2022-10-25T22:36:18.193Z,13.10
2022-10-25T22:38:46.277Z,11.73
2022-10-25T22:41:15.319Z,13.27
2022-10-25T22:43:42.820Z,18.53
2022-10-25T22:46:14.832Z,15.03
2022-10-25T22:48:43.326Z,16.27
2022-10-25T22:51:11.784Z,13.87
2022-10-25T22:53:39.767Z,14.07
2022-10-25T22:56:27.657Z,11.97
2022-10-25T22:58:57.415Z,19.83
2022-10-25T23:01:26.677Z,22.90
2022-10-25T23:03:55.723Z,14.77
2022-10-25T23:06:26.123Z,14.07
2022-10-25T23:08:58.211Z,11.43
2022-10-25T23:11:27.829Z,16.13
2022-10-25T23:13:55.176Z,12.20
2022-10-25T23:16:22.449Z,10.23
2022-10-25T23:18:49.788Z,12.40
2022-10-25T23:21:18.992Z,15.23
2022-10-25T23:23:46.676Z,12.70
2022-10-25T23:26:19.967Z,14.30
2022-10-25T23:28:47.434Z,16.73
2022-10-25T23:31:15.135Z,13.57
2022-10-25T23:33:42.492Z,16.53
2022-10-25T23:36:13.772Z,18.33
2022-10-25T23:38:41.064Z,17.40
2022-10-25T23:41:08.615Z,17.50
2022-10-25T23:43:36.156Z,14.10
2022-10-25T23:46:03.576Z,12.00
2022-10-25T23:48:31.209Z,17.43
2022-10-25T23:51:03.836Z,19.97
2022-10-25T23:53:31.293Z,18.80
2022-10-25T23:55:59.014Z,18.10
2022-10-25T23:58:26.382Z,19.53
